Time;durP1;ratioP1;P1;durP2;ratioP2;P2;SDS_P1;SDS_P2;PMS_P1;PMS_P2;Temp;Humidity;BMP_temperature;BMP_pressure;BME280_temperature;BME280_humidity;BME280_pressure;Samples;Min_cycle;Max_cycle;Signal;HPM_P1;HPM_P2
2024/03/05 00:00:22;;;;;;;47.20;17.53;;;7.90;99.90;;;8.62;100.00;97635.41;4988487;28;20222;-80
2024/03/05 00:02:51;;;;;;;39.77;16.70;;;7.90;99.90;;;8.59;100.00;97631.38;4986772;28;20468;-80
2024/03/05 00:05:20;;;;;;;37.00;16.53;;;7.80;99.90;;;8.55;100.00;97650.97;4986584;28;20525;-80
2024/03/05 00:07:49;;;;;;;41.47;16.88;;;7.70;99.90;;;8.52;100.00;97638.31;4987556;28;20915;-80
2024/03/05 00:10:17;;;;;;;34.60;16.70;;;7.80;99.90;;;8.55;100.00;97635.34;4987254;28;20204;-80
2024/03/05 00:12:47;;;;;;;35.10;15.23;;;7.80;99.90;;;8.60;100.00;97637.38;4986564;28;20551;-80
2024/03/05 00:15:16;;;;;;;40.60;17.33;;;7.80;99.90;;;8.57;100.00;97633.34;4986564;28;20541;-80
2024/03/05 00:17:44;;;;;;;34.13;17.20;;;7.80;99.90;;;8.54;100.00;97638.09;4986717;28;20504;-80
2024/03/05 00:20:18;;;;;;;36.53;18.80;;;7.70;99.90;;;8.48;100.00;97646.66;4986627;28;20487;-80
2024/03/05 00:22:50;;;;;;;47.20;18.17;;;7.60;99.90;;;8.50;100.00;97648.09;4986276;28;20519;-80
2024/03/05 00:25:19;;;;;;;42.53;18.27;;;7.70;99.90;;;8.50;100.00;97642.88;4988976;28;20491;-80
2024/03/05 00:27:48;;;;;;;39.83;17.05;;;7.70;99.90;;;8.53;100.00;97652.16;4990992;28;20524;-80
2024/03/05 00:30:18;;;;;;;42.60;16.67;;;7.80;99.90;;;8.54;100.00;97648.53;4986194;28;20213;-80
2024/03/05 00:32:47;;;;;;;39.42;15.77;;;7.80;99.90;;;8.56;100.00;97643.97;4986716;28;20457;-80
2024/03/05 00:35:16;;;;;;;38.75;16.15;;;7.80;99.90;;;8.44;100.00;97627.19;4987419;28;20702;-80
2024/03/05 00:37:45;;;;;;;40.20;16.77;;;7.70;99.90;;;8.45;100.00;97623.59;4987530;28;20230;-79
2024/03/05 00:40:15;;;;;;;40.93;17.37;;;7.70;99.90;;;8.49;100.00;97627.44;4988104;28;20207;-80
2024/03/05 00:42:44;;;;;;;36.70;16.23;;;7.70;99.90;;;8.39;100.00;97627.75;4987403;28;20501;-80
2024/03/05 00:45:17;;;;;;;39.90;18.07;;;7.60;99.90;;;8.36;100.00;97625.50;4987362;28;20514;-80
2024/03/05 00:47:44;;;;;;;44.90;19.20;;;7.60;99.90;;;8.40;100.00;97631.16;4987108;28;20462;-80
2024/03/05 00:50:14;;;;;;;41.77;16.67;;;7.70;99.90;;;8.36;100.00;97635.94;4985234;28;21041;-80
2024/03/05 00:52:42;;;;;;;37.35;15.23;;;7.60;99.90;;;8.34;100.00;97637.91;4986887;28;20500;-80
2024/03/05 00:55:10;;;;;;;41.80;18.20;;;7.60;99.90;;;8.37;100.00;97640.13;4985341;28;20270;-80
2024/03/05 00:57:40;;;;;;;45.97;17.00;;;7.60;99.90;;;8.35;100.00;97634.31;4984962;28;20479;-80
2024/03/05 01:00:13;;;;;;;34.90;14.60;;;7.60;99.90;;;8.28;100.00;97641.25;4986836;28;20539;-80
2024/03/05 01:02:42;;;;;;;40.70;18.20;;;7.50;99.90;;;8.25;100.00;97636.38;4984782;28;21154;-80
2024/03/05 01:05:11;;;;;;;43.45;16.70;;;7.50;99.90;;;8.28;100.00;97641.25;4984796;28;20333;-80
2024/03/05 01:07:40;;;;;;;39.20;17.17;;;7.50;99.90;;;8.29;100.00;97640.25;4986195;28;20288;-80
2024/03/05 01:10:09;;;;;;;39.67;15.73;;;7.50;99.90;;;8.33;100.00;97640.69;4986695;28;20485;-80
2024/03/05 01:12:40;;;;;;;46.20;18.80;;;7.60;99.90;;;8.39;100.00;97634.75;4985411;28;20455;-80
2024/03/05 01:15:09;;;;;;;45.63;18.53;;;7.60;99.90;;;8.36;100.00;97624.69;4985723;28;20470;-80
2024/03/05 01:17:39;;;;;;;35.08;17.10;;;7.60;99.90;;;8.42;100.00;97629.16;4983928;28;20494;-80
2024/03/05 01:20:15;;;;;;;50.30;19.57;;;7.60;99.90;;;8.47;100.00;97626.81;4985491;28;20230;-80
2024/03/05 01:22:44;;;;;;;38.37;16.80;;;7.70;99.90;;;8.43;100.00;97625.59;4986380;28;20499;-80
2024/03/05 01:25:13;;;;;;;49.07;18.87;;;7.70;99.90;;;8.44;100.00;97622.78;4990433;28;20538;-80
2024/03/05 01:27:43;;;;;;;48.00;18.10;;;7.60;99.90;;;8.46;100.00;97623.41;4988898;28;20476;-80
2024/03/05 01:30:13;;;;;;;43.77;18.20;;;7.70;99.90;;;8.50;100.00;97626.47;4988302;28;20464;-80
2024/03/05 01:32:44;;;;;;;38.97;16.73;;;7.70;99.90;;;8.49;100.00;97624.84;4990015;28;20807;-80
2024/03/05 01:35:13;;;;;;;40.50;18.60;;;7.70;99.90;;;8.49;100.00;97624.84;4989461;28;20499;-80
2024/03/05 01:37:41;;;;;;;35.53;17.27;;;7.70;99.90;;;8.49;100.00;97620.44;4987884;28;20496;-80
2024/03/05 01:40:10;;;;;;;41.37;17.90;;;7.70;99.90;;;8.50;100.00;97627.25;4986797;28;20475;-80
2024/03/05 01:42:39;;;;;;;43.57;17.37;;;7.70;99.90;;;8.51;100.00;97626.25;4986221;28;20470;-80
2024/03/05 01:45:10;;;;;;;40.38;18.60;;;7.70;99.90;;;8.51;100.00;97618.44;4988010;28;20490;-80
2024/03/05 01:47:39;;;;;;;44.77;18.50;;;7.70;99.90;;;8.54;100.00;97618.06;4984968;28;20211;-80
2024/03/05 01:50:09;;;;;;;40.67;17.60;;;7.80;99.90;;;8.53;100.00;97611.25;4986204;28;20463;-80
2024/03/05 01:52:38;;;;;;;39.70;16.50;;;7.90;99.90;;;8.52;100.00;97614.84;4984535;28;21105;-80
2024/03/05 01:55:14;;;;;;;43.45;19.92;;;7.80;99.90;;;8.48;100.00;97624.03;4980143;28;20460;-80
2024/03/05 01:57:47;;;;;;;37.60;17.83;;;7.70;99.90;;;8.45;100.00;97621.78;4980861;28;20238;-80
2024/03/05 02:00:20;;;;;;;42.37;17.70;;;7.70;99.90;;;8.47;100.00;97621.59;4981111;28;20474;-80
2024/03/05 02:02:50;;;;;;;35.90;16.87;;;7.80;99.90;;;8.49;100.00;97625.66;4981941;28;20501;-80
2024/03/05 02:05:19;;;;;;;44.73;18.20;;;7.80;99.90;;;8.51;100.00;97613.22;4982216;28;20501;-80
2024/03/05 02:07:48;;;;;;;42.43;18.17;;;7.70;99.90;;;8.54;100.00;97620.69;4980551;28;20805;-80
2024/03/05 02:10:17;;;;;;;38.13;16.60;;;7.70;99.90;;;8.55;100.00;97616.28;4981079;28;20527;-80
2024/03/05 02:12:45;;;;;;;38.23;18.53;;;7.70;99.90;;;8.52;100.00;97619.25;4981281;28;20479;-80
2024/03/05 02:15:18;;;;;;;40.97;17.37;;;7.60;99.90;;;8.45;100.00;97613.97;4980660;28;20495;-80
2024/03/05 02:17:47;;;;;;;41.27;18.10;;;7.60;99.90;;;8.41;100.00;97612.72;4979814;28;21046;-80
2024/03/05 02:20:15;;;;;;;44.10;18.13;;;7.60;99.90;;;8.42;100.00;97616.16;4981109;28;20890;-80
2024/03/05 02:22:46;;;;;;;36.50;16.50;;;7.60;99.90;;;8.35;100.00;97617.88;4980043;28;20239;-80
2024/03/05 02:25:15;;;;;;;38.90;16.95;;;7.50;99.90;;;8.32;100.00;97621.66;4980520;28;20509;-80
2024/03/05 02:27:49;;;;;;;41.60;18.60;;;7.50;99.90;;;8.29;100.00;97618.59;4980119;28;20193;-80
2024/03/05 02:30:18;;;;;;;42.78;17.45;;;7.40;99.90;;;8.27;100.00;97617.94;4981514;28;20900;-80
2024/03/05 02:32:48;;;;;;;37.57;18.00;;;7.40;99.90;;;8.29;100.00;97621.22;4982067;28;20214;-80
2024/03/05 02:35:16;;;;;;;37.07;17.07;;;7.50;99.90;;;8.31;100.00;97620.03;4983598;28;20487;-80
2024/03/05 02:37:46;;;;;;;42.50;19.67;;;7.50;99.90;;;8.37;100.00;97621.91;4986053;28;20506;-80
2024/03/05 02:40:14;;;;;;;47.83;19.60;;;7.60;99.90;;;8.32;100.00;97624.25;4988225;28;20558;-79
2024/03/05 02:42:44;;;;;;;41.67;17.60;;;7.50;99.90;;;8.33;100.00;97619.84;4985762;28;20451;-80
2024/03/05 02:45:13;;;;;;;38.50;16.77;;;7.50;99.90;;;8.36;100.00;97624.69;4985648;28;20505;-80
2024/03/05 02:47:41;;;;;;;38.27;17.30;;;7.60;99.90;;;8.40;100.00;97618.91;4985019;28;20455;-80
2024/03/05 02:50:12;;;;;;;43.37;16.93;;;7.60;99.90;;;8.43;100.00;97615.97;4983784;28;20563;-80
2024/03/05 02:52:41;;;;;;;47.03;18.55;;;7.70;99.90;;;8.42;100.00;97619.56;4984420;28;20594;-80
2024/03/05 02:55:12;;;;;;;46.10;18.30;;;7.60;99.90;;;8.41;100.00;97620.53;4984983;28;20215;-80
2024/03/05 02:57:43;;;;;;;46.57;18.87;;;7.60;99.90;;;8.34;100.00;97616.25;4983072;28;20940;-80
2024/03/05 03:00:18;;;;;;;37.33;16.67;;;7.50;99.90;;;8.34;100.00;97626.66;4984059;28;20466;-80
2024/03/05 03:02:49;;;;;;;37.43;16.57;;;7.50;99.90;;;8.36;100.00;97622.91;4983978;28;20467;-80
2024/03/05 03:05:21;;;;;;;40.55;17.52;;;7.50;99.90;;;8.42;100.00;97621.34;4983921;28;21093;-80
2024/03/05 03:07:50;;;;;;;44.30;17.73;;;7.60;99.90;;;8.45;100.00;97621.78;4983938;28;20349;-80
2024/03/05 03:10:21;;;;;;;39.63;17.20;;;7.70;99.90;;;8.46;100.00;97625.22;4984446;28;20523;-80
2024/03/05 03:12:50;;;;;;;47.23;17.90;;;7.70;99.90;;;8.37;100.00;97634.91;4983236;28;20471;-80
2024/03/05 03:15:20;;;;;;;40.00;17.17;;;7.60;99.90;;;8.38;100.00;97636.53;4984280;28;20807;-80
2024/03/05 03:17:49;;;;;;;37.43;16.20;;;7.60;99.90;;;8.42;100.00;97635.19;4983446;28;20953;-80
2024/03/05 03:20:18;;;;;;;42.97;17.93;;;7.70;99.90;;;8.45;100.00;97637.44;4983227;28;20916;-80
2024/03/05 03:22:47;;;;;;;41.10;17.37;;;7.60;99.90;;;8.45;100.00;97634.81;4984750;28;20484;-80
2024/03/05 03:25:16;;;;;;;42.23;16.03;;;7.60;99.90;;;8.45;100.00;97629.59;4983727;28;20649;-80
2024/03/05 03:27:47;;;;;;;39.13;16.63;;;7.60;99.90;;;8.43;100.00;97636.81;4989270;28;20463;-80
2024/03/05 03:30:19;;;;;;;44.70;18.57;;;7.60;99.90;;;8.47;100.00;97643.25;4986342;28;20978;-80
2024/03/05 03:32:49;;;;;;;39.30;16.57;;;7.60;99.90;;;8.46;100.00;97639.06;4988475;28;20853;-80
2024/03/05 03:35:19;;;;;;;42.92;17.02;;;7.60;99.90;;;8.46;100.00;97641.66;4986784;28;21183;-80
2024/03/05 03:37:48;;;;;;;41.87;17.60;;;7.60;99.90;;;8.48;100.00;97644.06;4988101;28;20491;-80
2024/03/05 03:40:21;;;;;;;42.70;16.63;;;7.60;99.90;;;8.48;100.00;97647.47;4985817;28;20469;-80
2024/03/05 03:42:53;;;;;;;45.47;18.20;;;7.60;99.90;;;8.47;100.00;97645.84;4986958;28;20494;-81
2024/03/05 03:45:21;;;;;;;37.87;15.73;;;7.60;99.90;;;8.48;100.00;97642.25;4984637;28;20554;-80
2024/03/05 03:47:50;;;;;;;34.83;16.65;;;7.60;99.90;;;8.48;100.00;97644.06;4981858;28;20472;-80
2024/03/05 03:50:19;;;;;;;43.47;17.07;;;7.70;99.90;;;8.49;100.00;97649.09;4981981;28;20203;-80
2024/03/05 03:52:48;;;;;;;43.17;17.30;;;7.60;99.90;;;8.52;100.00;97645.31;4982576;28;20984;-80
2024/03/05 03:55:17;;;;;;;40.85;17.85;;;7.60;99.90;;;8.49;100.00;97646.50;4982652;28;20469;-80
2024/03/05 03:57:47;;;;;;;38.97;16.93;;;7.60;99.90;;;8.51;100.00;97649.72;4981223;28;20243;-80
2024/03/05 04:00:18;;;;;;;38.80;16.13;;;7.60;99.90;;;8.50;100.00;97648.09;4983078;28;20470;-80
2024/03/05 04:02:47;;;;;;;45.17;17.30;;;7.60;99.90;;;8.50;100.00;97657.72;4982693;28;20542;-80
2024/03/05 04:05:16;;;;;;;46.30;16.87;;;7.60;99.90;;;8.48;100.00;97652.69;4982510;28;20500;-80
2024/03/05 04:07:44;;;;;;;40.93;17.90;;;7.70;99.90;;;8.46;100.00;97652.06;4978854;28;20470;-85
2024/03/05 04:10:13;;;;;;;41.97;18.43;;;7.70;99.90;;;8.46;100.00;97657.28;4979983;28;20586;-80
2024/03/05 04:12:42;;;;;;;40.80;16.83;;;7.70;99.90;;;8.44;100.00;97658.44;4976111;28;20976;-80
2024/03/05 04:15:12;;;;;;;40.37;17.60;;;7.60;99.90;;;8.37;100.00;97658.38;4976222;28;20475;-81
2024/03/05 04:17:44;;;;;;;41.97;18.08;;;7.60;99.90;;;8.37;100.00;97665.38;4978382;28;20473;-81
2024/03/05 04:20:14;;;;;;;40.90;16.03;;;7.60;99.90;;;8.39;100.00;97659.00;4978172;28;20569;-81
2024/03/05 04:22:43;;;;;;;43.27;17.27;;;7.60;99.90;;;8.40;100.00;97665.81;4975836;28;20476;-85
2024/03/05 04:25:13;;;;;;;38.20;16.60;;;7.60;99.90;;;8.38;100.00;97660.00;4977553;28;20502;-81
2024/03/05 04:27:45;;;;;;;45.20;19.08;;;7.60;99.90;;;8.38;100.00;97660.00;4976477;28;20460;-81
2024/03/05 04:30:15;;;;;;;38.17;15.40;;;7.60;99.90;;;8.34;100.00;97669.16;4976743;28;20209;-81
2024/03/05 04:32:49;;;;;;;36.13;15.63;;;7.60;99.90;;;8.35;100.00;97660.34;4980814;28;20470;-81
2024/03/05 04:35:28;;;;;;;47.73;17.30;;;7.50;99.90;;;8.37;100.00;97658.38;4981938;28;20567;-81
2024/03/05 04:37:58;;;;;;;35.47;15.70;;;7.50;99.90;;;8.34;100.00;97650.09;4981988;28;20873;-81
2024/03/05 04:40:29;;;;;;;43.72;17.45;;;7.50;99.90;;;8.37;100.00;97663.56;4982297;28;20482;-81
2024/03/05 04:42:58;;;;;;;37.20;14.87;;;7.50;99.90;;;8.39;100.00;97660.81;4980670;28;20217;-81
2024/03/05 04:45:26;;;;;;;35.20;16.73;;;7.50;99.90;;;8.42;100.00;97666.44;4982130;28;21028;-81
2024/03/05 04:47:57;;;;;;;36.80;17.10;;;7.60;99.90;;;8.42;100.00;97666.44;4981574;28;20751;-81
2024/03/05 04:50:25;;;;;;;35.25;14.75;;;7.60;99.90;;;8.43;100.00;97662.06;4980986;28;20471;-81
2024/03/05 04:52:54;;;;;;;33.13;15.45;;;7.60;99.90;;;8.45;100.00;97662.66;4980365;28;20215;-80
2024/03/05 04:55:23;;;;;;;28.43;14.57;;;7.60;99.90;;;8.46;100.00;97662.50;4978321;28;20728;-82
2024/03/05 04:57:52;;;;;;;35.57;15.33;;;7.60;99.90;;;8.45;100.00;97666.09;4976025;28;21702;-80
2024/03/05 05:00:21;;;;;;;40.13;15.77;;;7.60;99.90;;;8.45;100.00;97655.66;4977840;28;20961;-80
2024/03/05 05:02:51;;;;;;;36.90;16.20;;;7.60;99.90;;;8.47;100.00;97665.88;4976386;28;20595;-80
2024/03/05 05:05:24;;;;;;;40.03;17.60;;;7.60;99.90;;;8.44;100.00;97664.47;4975553;28;20472;-80
2024/03/05 05:07:57;;;;;;;32.67;15.83;;;7.60;99.90;;;8.45;100.00;97667.88;4976262;28;21178;-79
2024/03/05 05:10:25;;;;;;;36.20;15.77;;;7.60;99.90;;;8.43;100.00;97662.88;4978337;28;20460;-79
2024/03/05 05:12:54;;;;;;;33.37;15.37;;;7.60;99.90;;;8.43;100.00;97657.66;4974982;28;20495;-80
2024/03/05 05:15:23;;;;;;;34.17;15.63;;;7.60;99.90;;;8.45;100.00;97658.28;4978128;28;20474;-79
2024/03/05 05:17:53;;;;;;;34.10;15.10;;;7.60;99.90;;;8.45;100.00;97660.06;4976835;28;20458;-80
2024/03/05 05:20:23;;;;;;;34.55;15.32;;;7.60;99.90;;;8.43;100.00;97657.66;4979944;28;20219;-80
2024/03/05 05:22:51;;;;;;;38.67;17.50;;;7.60;99.90;;;8.45;100.00;97671.28;4977576;28;20215;-80
2024/03/05 05:25:21;;;;;;;34.80;15.63;;;7.60;99.90;;;8.42;100.00;97661.25;4977102;28;20466;-80
2024/03/05 05:27:51;;;;;;;36.90;14.80;;;7.60;99.90;;;8.40;100.00;97665.81;4974389;28;21183;-78
2024/03/05 05:30:22;;;;;;;33.03;15.80;;;7.60;99.90;;;8.40;100.00;97660.59;4976208;28;20542;-80
2024/03/05 05:32:51;;;;;;;34.20;16.07;;;7.60;99.90;;;8.41;100.00;97664.81;4982970;28;20478;-85
2024/03/05 05:35:22;;;;;;;41.17;16.67;;;7.60;99.90;;;8.41;100.00;97664.81;4981686;28;20515;-80
2024/03/05 05:37:50;;;;;;;34.53;16.00;;;7.60;99.90;;;8.40;100.00;97668.41;4984379;28;20495;-80
2024/03/05 05:40:19;;;;;;;42.23;19.20;;;7.60;99.90;;;8.41;100.00;97664.81;4982357;28;20490;-80
2024/03/05 05:42:51;;;;;;;31.83;16.90;;;7.60;99.90;;;8.38;100.00;97667.81;4982324;28;21003;-77
2024/03/05 05:45:21;;;;;;;35.30;16.80;;;7.50;99.90;;;8.38;100.00;97669.59;4986671;28;20466;-77
2024/03/05 05:47:53;;;;;;;39.72;17.90;;;7.60;99.90;;;8.40;100.00;97660.59;4985648;28;20482;-77
2024/03/05 05:50:28;;;;;;;34.97;17.17;;;7.60;99.90;;;8.40;100.00;97658.00;4986711;28;20218;-77
2024/03/05 05:52:58;;;;;;;37.53;17.50;;;7.60;99.90;;;8.40;100.00;97658.00;4984370;28;20474;-78
2024/03/05 05:55:28;;;;;;;30.83;16.27;;;7.50;99.90;;;8.40;100.00;97659.81;4985421;28;20501;-77
2024/03/05 05:57:57;;;;;;;36.40;17.70;;;7.50;99.90;;;8.37;100.00;97662.75;4986605;28;20946;-77
2024/03/05 06:00:36;;;;;;;36.17;16.70;;;7.50;99.90;;;8.36;100.00;97663.78;4986584;28;20856;-77
2024/03/05 06:03:08;;;;;;;37.27;16.30;;;7.50;99.90;;;8.36;100.00;97667.19;4985644;28;20458;-78
2024/03/05 06:05:39;;;;;;;34.80;17.47;;;7.60;99.90;;;8.36;100.00;97666.38;4985207;28;20557;-77
2024/03/05 06:08:10;;;;;;;28.60;15.70;;;7.60;99.90;;;8.34;100.00;97670.94;4986752;28;20532;-77
2024/03/05 06:10:41;;;;;;;34.17;17.67;;;7.60;99.90;;;8.33;100.00;97675.34;4986490;28;20502;-77
2024/03/05 06:13:11;;;;;;;32.60;17.40;;;7.60;99.90;;;8.30;100.00;97673.09;4989767;28;20461;-77
2024/03/05 06:15:40;;;;;;;38.07;16.90;;;7.60;99.90;;;8.31;100.00;97677.34;4990883;28;20705;-77
2024/03/05 06:18:08;;;;;;;39.77;18.20;;;7.50;99.90;;;8.29;100.00;97675.91;4991977;28;20457;-77
2024/03/05 06:20:39;;;;;;;35.20;17.17;;;7.50;99.90;;;8.29;100.00;97674.13;4990884;28;20462;-77
2024/03/05 06:23:07;;;;;;;33.53;18.17;;;7.50;99.90;;;8.27;100.00;97675.22;4991947;28;20463;-77
2024/03/05 06:25:36;;;;;;;30.37;16.43;;;7.50;99.90;;;8.26;100.00;97692.66;4990956;28;20519;-77
2024/03/05 06:28:08;;;;;;;32.10;16.03;;;7.60;99.90;;;8.25;100.00;97691.06;4991460;28;20565;-77
2024/03/05 06:30:36;;;;;;;30.90;15.77;;;7.50;99.90;;;8.26;100.00;97686.66;4990364;28;20456;-77
2024/03/05 06:33:08;;;;;;;30.43;16.43;;;7.50;99.90;;;8.26;100.00;97689.28;4991016;28;20464;-77
2024/03/05 06:35:38;;;;;;;29.37;15.40;;;7.60;99.90;;;8.24;100.00;97691.22;4991373;28;20511;-77
2024/03/05 06:38:08;;;;;;;32.35;16.52;;;7.60;99.90;;;8.24;100.00;97705.06;4990331;28;20563;-77
2024/03/05 06:40:37;;;;;;;32.88;15.43;;;7.50;99.90;;;8.26;100.00;97695.25;4991848;28;20462;-77
2024/03/05 06:43:12;;;;;;;31.03;15.50;;;7.50;99.90;;;8.27;100.00;97694.28;4992736;28;20204;-77
2024/03/05 06:45:42;;;;;;;37.63;15.60;;;7.50;99.90;;;8.27;100.00;97699.50;4989025;28;20464;-77
2024/03/05 06:48:12;;;;;;;28.70;14.17;;;7.50;99.90;;;8.26;100.00;97704.91;4989876;28;20516;-77
2024/03/05 06:50:51;;;;;;;29.93;15.60;;;7.40;99.90;;;8.28;100.00;97701.16;4989334;28;20467;-78
2024/03/05 06:58:53;;;;;;;23.37;14.07;;;7.40;99.90;;;8.30;100.00;97703.56;4988420;28;20473;-77
2024/03/05 07:01:22;;;;;;;28.03;14.17;;;7.50;99.90;;;8.28;100.00;97711.56;4989534;28;20456;-77
2024/03/05 07:03:51;;;;;;;34.20;15.17;;;7.50;99.90;;;8.27;100.00;97720.31;4989173;28;20469;-77
2024/03/05 07:06:21;;;;;;;29.23;13.57;;;7.50;99.90;;;8.27;100.00;97715.13;4989356;28;20492;-78
2024/03/05 07:08:51;;;;;;;24.42;14.15;;;7.50;99.90;;;8.27;100.00;97722.94;4988038;28;20478;-77
2024/03/05 07:11:20;;;;;;;32.73;15.17;;;7.60;99.90;;;8.27;100.00;97720.31;4989139;28;20210;-77
2024/03/05 07:13:51;;;;;;;34.70;15.80;;;7.50;99.90;;;8.28;100.00;97727.19;4988362;28;20469;-77
2024/03/05 07:16:23;;;;;;;32.63;15.27;;;7.50;99.90;;;8.28;100.00;97726.34;4988135;28;20469;-77
2024/03/05 07:18:54;;;;;;;36.95;16.00;;;7.60;99.90;;;8.31;100.00;97724.22;4988232;28;20463;-77
2024/03/05 07:21:25;;;;;;;33.23;14.60;;;7.60;99.90;;;8.29;100.00;97723.59;4987645;28;21101;-77
2024/03/05 07:23:54;;;;;;;27.83;15.60;;;7.50;99.90;;;8.33;100.00;97721.44;4988402;28;21073;-78
2024/03/05 07:26:24;;;;;;;30.97;15.77;;;7.60;99.90;;;8.36;100.00;97726.28;4993930;28;20500;-77
2024/03/05 07:28:55;;;;;;;27.10;14.35;;;7.60;99.90;;;8.35;100.00;97725.47;4992135;28;20581;-77
2024/03/05 07:31:27;;;;;;;29.53;16.17;;;7.60;99.90;;;8.35;100.00;97716.84;4989446;28;20570;-77
2024/03/05 07:33:55;;;;;;;28.70;15.60;;;7.70;99.90;;;8.33;100.00;97719.63;4991949;28;20463;-78
2024/03/05 07:36:25;;;;;;;35.92;17.27;;;7.60;99.90;;;8.36;100.00;97724.50;4992630;28;20471;-78
2024/03/05 07:38:54;;;;;;;30.63;14.97;;;7.70;99.90;;;8.39;100.00;97726.75;4993871;28;20209;-78
2024/03/05 07:41:22;;;;;;;37.80;15.97;;;7.70;99.90;;;8.44;100.00;97726.19;4992539;28;20548;-78
2024/03/05 07:44:02;;;;;;;40.63;17.20;;;7.80;99.90;;;8.46;100.00;97725.03;4990172;28;20567;-78
2024/03/05 07:46:33;;;;;;;37.70;17.73;;;7.80;99.90;;;8.42;100.00;97717.75;4992859;28;20464;-78
2024/03/05 07:49:03;;;;;;;33.50;16.03;;;7.70;99.90;;;8.43;100.00;97717.56;4992031;28;20500;-78
2024/03/05 07:51:34;;;;;;;37.53;17.53;;;7.80;99.90;;;8.42;100.00;97717.75;4992100;28;20465;-78
2024/03/05 07:54:05;;;;;;;32.53;16.27;;;7.70;99.90;;;8.39;100.00;97724.13;4993516;28;20460;-78
2024/03/05 07:56:34;;;;;;;40.97;17.17;;;7.70;99.90;;;8.40;100.00;97723.13;4993248;28;20468;-78
2024/03/05 07:59:03;;;;;;;34.20;18.03;;;7.70;99.90;;;8.44;100.00;97732.19;4992391;28;20464;-78
2024/03/05 08:01:33;;;;;;;38.58;17.80;;;7.80;99.90;;;8.47;100.00;97731.84;4992272;28;20465;-79
2024/03/05 08:04:02;;;;;;;40.30;19.00;;;7.80;99.90;;;8.46;100.00;97738.06;4993214;28;20631;-78
2024/03/05 08:06:30;;;;;;;36.37;19.40;;;7.70;99.90;;;8.37;100.00;97738.31;4987841;28;20460;-78
2024/03/05 08:09:00;;;;;;;37.87;19.33;;;7.60;99.90;;;8.37;100.00;97739.13;4987287;28;20513;-78
2024/03/05 08:11:29;;;;;;;43.23;19.53;;;7.60;99.90;;;8.43;100.00;97743.63;4987770;28;20467;-78
2024/03/05 08:13:57;;;;;;;37.07;17.97;;;7.80;99.90;;;8.47;100.00;97744.88;4987685;28;20462;-78
2024/03/05 08:16:26;;;;;;;34.60;17.58;;;7.80;99.90;;;8.51;100.00;97743.53;4987462;28;20554;-78
2024/03/05 08:18:55;;;;;;;38.43;19.70;;;7.80;99.90;;;8.48;100.00;97743.88;4988363;28;20283;-78
2024/03/05 08:21:23;;;;;;;36.90;18.03;;;7.80;99.90;;;8.51;100.00;97748.72;4987515;28;20522;-78
2024/03/05 08:23:53;;;;;;;44.13;19.37;;;7.80;99.90;;;8.47;100.00;97752.69;4987935;28;20467;-78
2024/03/05 08:26:24;;;;;;;40.00;19.43;;;7.80;99.90;;;8.54;100.00;97745.75;4987012;28;20509;-78
2024/03/05 08:28:52;;;;;;;36.60;18.70;;;7.90;99.90;;;8.56;100.00;97754.22;4986416;28;21105;-77
2024/03/05 08:31:21;;;;;;;40.97;19.90;;;7.90;99.90;;;8.54;100.00;97758.78;4987206;28;20529;-77
2024/03/05 08:33:49;;;;;;;45.10;19.13;;;7.80;99.90;;;8.50;100.00;97761.97;4986804;28;20227;-77
2024/03/05 08:36:18;;;;;;;34.73;18.20;;;7.70;99.90;;;8.45;100.00;97765.09;4988192;28;20470;-77
2024/03/05 08:38:47;;;;;;;37.37;17.97;;;7.70;99.90;;;8.51;100.00;97761.75;4987251;28;20464;-77
2024/03/05 08:41:17;;;;;;;35.50;18.17;;;7.80;99.90;;;8.50;100.00;97764.56;4987202;28;21174;-78
2024/03/05 08:43:47;;;;;;;31.13;16.27;;;7.80;99.90;;;8.54;100.00;97766.59;4991357;28;20202;-77
2024/03/05 08:46:16;;;;;;;30.97;17.47;;;7.90;99.90;;;8.55;100.00;97770.84;4989801;28;20220;-77
2024/03/05 08:48:44;;;;;;;33.13;15.73;;;7.90;99.90;;;8.50;100.00;97773.16;4988035;28;21201;-78
2024/03/05 08:51:13;;;;;;;34.87;15.90;;;7.90;99.90;;;8.44;100.00;97780.88;4985729;28;21003;-77
2024/03/05 08:53:42;;;;;;;30.50;14.60;;;7.70;99.90;;;8.42;100.00;97775.88;4987349;28;20461;-77
2024/03/05 08:56:10;;;;;;;29.25;14.95;;;7.70;99.90;;;8.45;100.00;97790.34;4987128;28;20477;-77
2024/03/05 08:58:40;;;;;;;33.43;14.73;;;7.80;99.90;;;8.41;100.00;97783.84;4989932;28;20219;-78
2024/03/05 09:01:12;;;;;;;25.07;14.00;;;7.90;99.90;;;8.36;100.00;97789.63;4988684;28;20468;-77
2024/03/05 09:03:41;;;;;;;22.20;12.47;;;7.70;99.90;;;8.27;100.00;97785.44;4987489;28;20965;-77
2024/03/05 09:06:10;;;;;;;22.93;12.30;;;7.70;99.90;;;8.28;100.00;97794.91;4987758;28;20467;-79
2024/03/05 09:08:41;;;;;;;20.50;9.80;;;7.70;99.90;;;8.28;100.00;97799.28;4987858;28;20498;-77
2024/03/05 09:11:11;;;;;;;18.17;9.90;;;7.60;99.90;;;8.29;100.00;97800.94;4988599;28;20555;-77
2024/03/05 09:13:46;;;;;;;11.37;7.83;;;7.70;99.90;;;8.15;100.00;97812.94;4987775;28;20242;-77
2024/03/05 09:16:16;;;;;;;13.43;8.40;;;7.50;99.90;;;8.11;100.00;97814.25;4986443;28;20467;-77
2024/03/05 09:18:46;;;;;;;12.87;7.27;;;7.50;99.90;;;8.17;100.00;97813.53;4986841;28;20463;-77
2024/03/05 09:21:15;;;;;;;13.80;7.27;;;7.50;99.90;;;8.16;100.00;97816.34;4986605;28;21046;-77
2024/03/05 09:23:44;;;;;;;8.70;6.17;;;7.60;99.90;;;8.15;100.00;97814.72;4988152;28;20539;-77
2024/03/05 09:26:12;;;;;;;9.97;5.97;;;7.50;99.90;;;8.19;100.00;97814.16;4991772;28;20480;-78
2024/03/05 09:28:41;;;;;;;10.67;5.90;;;7.60;99.90;;;8.19;100.00;97803.75;4991893;28;20501;-77
2024/03/05 09:31:09;;;;;;;10.93;5.53;;;7.60;99.90;;;8.19;100.00;97811.56;4992087;28;20558;-77
2024/03/05 09:33:40;;;;;;;9.57;5.50;;;7.60;99.90;;;8.24;100.00;97811.03;4990617;28;20464;-77
2024/03/05 09:36:09;;;;;;;9.80;5.33;;;7.60;99.90;;;8.14;100.00;97819.13;4989429;28;20521;-78
2024/03/05 09:38:38;;;;;;;9.60;5.13;;;7.50;99.90;;;8.25;100.00;97823.09;4991249;28;20966;-77
2024/03/05 09:41:08;;;;;;;9.90;6.00;;;7.60;99.90;;;8.30;100.00;97823.38;4989997;28;20470;-78
2024/03/05 09:43:41;;;;;;;12.63;5.13;;;7.60;99.90;;;8.33;100.00;97829.03;4989961;28;20461;-78
2024/03/05 09:46:14;;;;;;;8.03;5.13;;;7.80;99.90;;;8.37;100.00;97822.50;4989104;28;20466;-77
2024/03/05 09:48:45;;;;;;;7.40;4.80;;;7.80;99.90;;;8.35;100.00;97819.25;4990083;28;20505;-77
2024/03/05 09:51:14;;;;;;;12.53;5.40;;;7.80;99.90;;;8.41;100.00;97815.13;4989829;28;20478;-77
2024/03/05 09:53:42;;;;;;;8.40;4.73;;;7.90;99.90;;;8.45;100.00;97822.41;4990341;28;20468;-78
2024/03/05 09:56:13;;;;;;;7.78;3.92;;;7.80;99.90;;;8.44;100.00;97828.59;4988397;28;20471;-78
2024/03/05 09:58:41;;;;;;;5.30;3.40;;;7.80;99.90;;;8.50;100.00;97830.47;4987663;28;20630;-77
2024/03/05 10:01:10;;;;;;;4.20;3.07;;;7.90;99.90;;;8.56;100.00;97826.38;4987053;28;20824;-78
2024/03/05 10:03:41;;;;;;;5.70;3.53;;;8.00;99.90;;;8.51;100.00;97826.09;4986081;28;20473;-77
2024/03/05 10:06:15;;;;;;;5.30;3.37;;;8.00;99.90;;;8.45;100.00;97832.84;4986761;28;20542;-78
2024/03/05 10:08:44;;;;;;;2.87;2.53;;;8.00;99.90;;;8.54;100.00;97830.94;4986542;28;20514;-78
2024/03/05 10:11:12;;;;;;;9.27;2.72;;;7.90;99.90;;;8.58;100.00;97833.00;4987969;28;20969;-78
2024/03/05 10:13:41;;;;;;;4.10;2.60;;;7.90;99.90;;;8.56;100.00;97842.81;4986609;28;20206;-78
2024/03/05 10:16:19;;;;;;;6.13;3.20;;;7.90;99.90;;;8.66;100.00;97839.94;4986924;28;20208;-77
2024/03/05 10:18:49;;;;;;;5.93;3.20;;;8.00;99.90;;;8.64;100.00;97841.13;4988083;28;20466;-77
2024/03/05 10:21:22;;;;;;;4.03;2.15;;;7.90;99.90;;;8.62;100.00;97845.69;4985507;28;20471;-78
2024/03/05 10:23:59;;;;;;;6.67;2.63;;;7.90;99.90;;;8.69;100.00;97854.41;4987915;28;20220;-77
2024/03/05 10:26:30;;;;;;;4.00;2.70;;;8.10;99.90;;;8.55;100.00;97851.63;4985249;28;20471;-77
2024/03/05 10:29:00;;;;;;;5.37;3.10;;;8.00;99.90;;;8.60;100.00;97853.69;4985795;28;20497;-77
2024/03/05 10:31:30;;;;;;;5.05;2.72;;;8.00;99.90;;;8.63;100.00;97855.13;4985201;28;20469;-77